createdAt,value
2019-06-07T00:00:53.669Z,100794.42
2019-06-07T00:03:27.451Z,100790.92
2019-06-07T00:05:50.724Z,100785.61
2019-06-07T00:08:24.851Z,100783.77
2019-06-07T00:10:45.195Z,100784.70
2019-06-07T00:13:12.909Z,100784.91
2019-06-07T00:15:39.785Z,100777.14
2019-06-07T00:18:10.248Z,100771.66
2019-06-07T00:20:34.280Z,100766.34
2019-06-07T00:23:00.562Z,100763.81
2019-06-07T00:25:26.777Z,100763.77
2019-06-07T00:27:53.079Z,100765.47
2019-06-07T00:30:37.626Z,100761.03
2019-06-07T00:32:47.732Z,100754.66
2019-06-07T00:35:15.383Z,100760.72
2019-06-07T00:37:42.383Z,100757.88
2019-06-07T00:40:16.178Z,100758.73
2019-06-07T00:42:37.154Z,100752.69
2019-06-07T00:45:07.182Z,100756.22
2019-06-07T00:47:33.293Z,100754.66
2019-06-07T00:49:59.554Z,100752.01
2019-06-07T00:54:53.989Z,100756.22
2019-06-07T00:57:22.224Z,100755.44
2019-06-07T00:59:48.460Z,100755.53
2019-06-07T01:02:16.678Z,100758.73
2019-06-07T01:04:42.794Z,100753.61
2019-06-07T01:07:08.900Z,100748.38
2019-06-07T01:09:35.041Z,100749.11
2019-06-07T01:12:01.256Z,100740.22
2019-06-07T01:14:28.692Z,100727.20
2019-06-07T01:17:01.488Z,100737.00
2019-06-07T01:19:26.420Z,100736.23
2019-06-07T01:21:51.660Z,100737.15
2019-06-07T01:24:17.864Z,100735.91
2019-06-07T01:26:44.102Z,100741.00
2019-06-07T01:29:10.322Z,100734.66
2019-06-07T01:31:36.695Z,100737.08
2019-06-07T01:34:03.025Z,100742.24
2019-06-07T01:36:31.006Z,100733.59
2019-06-07T01:38:57.475Z,100710.19
2019-06-07T01:41:25.902Z,100712.84
2019-06-07T01:43:51.717Z,100719.66
2019-06-07T01:46:18.212Z,100722.27
2019-06-07T01:48:49.398Z,100721.21
2019-06-07T01:51:13.085Z,100719.89
2019-06-07T01:53:39.187Z,100718.95
2019-06-07T01:56:05.468Z,100715.69
2019-06-07T01:58:31.554Z,100715.77
2019-06-07T02:00:57.668Z,100710.60
2019-06-07T02:03:28.086Z,100696.98
2019-06-07T02:05:51.983Z,100696.15
2019-06-07T02:08:20.042Z,100695.18
2019-06-07T02:10:46.178Z,100696.92
2019-06-07T02:13:13.423Z,100702.05
2019-06-07T02:15:39.648Z,100708.20
2019-06-07T02:18:05.982Z,100699.45
2019-06-07T02:20:34.512Z,100704.67
2019-06-07T02:23:00.104Z,100707.13
2019-06-07T02:25:49.584Z,100705.19
2019-06-07T02:28:11.102Z,100703.60
2019-06-07T02:30:47.078Z,100702.44
2019-06-07T02:32:50.402Z,100699.62
2019-06-07T02:35:16.808Z,100706.56
2019-06-07T02:37:43.028Z,100692.55
2019-06-07T02:40:12.360Z,100702.55
2019-06-07T02:42:42.672Z,100699.17
2019-06-07T02:45:07.923Z,100695.09
2019-06-07T02:47:37.677Z,100694.17
2019-06-07T02:50:06.558Z,100690.64
2019-06-07T02:52:38.694Z,100682.77
2019-06-07T02:55:00.753Z,100685.27
2019-06-07T02:57:29.298Z,100683.25
2019-06-07T03:00:16.569Z,100677.59
2019-06-07T03:02:25.552Z,100681.27
2019-06-07T03:04:51.492Z,100684.59
2019-06-07T03:07:18.343Z,100692.25
2019-06-07T03:09:45.358Z,100693.79
2019-06-07T03:12:12.347Z,100692.99
2019-06-07T03:14:39.593Z,100695.59
2019-06-07T03:17:19.850Z,100696.59
2019-06-07T03:19:48.898Z,100696.52
2019-06-07T03:22:15.228Z,100693.73
2019-06-07T03:24:44.168Z,100691.18
2019-06-07T03:27:34.020Z,100691.31
2019-06-07T03:29:41.367Z,100698.20
2019-06-07T03:32:07.824Z,100708.44
2019-06-07T03:34:39.275Z,100705.04
2019-06-07T03:37:02.389Z,100705.04
2019-06-07T03:39:29.656Z,100689.33
2019-06-07T03:42:06.398Z,100712.73
2019-06-07T03:44:25.252Z,100712.73
2019-06-07T03:46:51.388Z,100710.32
2019-06-07T03:49:17.504Z,100708.57
2019-06-07T03:51:44.757Z,100712.23
2019-06-07T03:54:10.932Z,100705.27
2019-06-07T03:56:38.627Z,100702.09
2019-06-07T03:59:05.359Z,100706.84
2019-06-07T04:01:32.342Z,100706.84
2019-06-07T04:03:59.061Z,100700.59
2019-06-07T04:06:25.195Z,100702.31
2019-06-07T04:08:51.586Z,100697.00
2019-06-07T04:11:17.679Z,100705.80
2019-06-07T04:13:43.894Z,100691.95
2019-06-07T04:16:10.308Z,100676.88
2019-06-07T04:18:40.868Z,100676.88
2019-06-07T04:21:04.633Z,100685.84
2019-06-07T04:23:33.130Z,100688.74
2019-06-07T04:25:59.114Z,100696.73
2019-06-07T04:29:15.617Z,100698.47
2019-06-07T04:30:53.333Z,100696.83
2019-06-07T04:33:20.580Z,100706.50
2019-06-07T04:35:47.022Z,100703.84
2019-06-07T04:38:14.084Z,100693.16
2019-06-07T04:40:43.933Z,100698.47
2019-06-07T04:43:11.250Z,100688.46
2019-06-07T04:45:45.867Z,100686.77
2019-06-07T04:48:06.408Z,100676.59
2019-06-07T04:50:34.302Z,100677.64
2019-06-07T04:53:03.332Z,100677.02
2019-06-07T04:55:29.646Z,100681.47
2019-06-07T04:57:57.096Z,100675.45
2019-06-07T05:02:57.983Z,100675.61
2019-06-07T05:05:24.487Z,100675.77
2019-06-07T05:07:50.580Z,100670.77
2019-06-07T05:10:16.693Z,100667.42
2019-06-07T05:12:44.189Z,100669.09
2019-06-07T05:15:10.930Z,100673.41
2019-06-07T05:17:39.933Z,100672.69
2019-06-07T05:20:05.644Z,100669.45
2019-06-07T05:22:34.923Z,100676.49
2019-06-07T05:24:59.882Z,100671.19
2019-06-07T05:27:26.157Z,100667.70
2019-06-07T05:30:09.517Z,100664.41
2019-06-07T05:32:20.564Z,100662.66
2019-06-07T05:34:47.549Z,100657.49
2019-06-07T05:37:13.917Z,100664.66
2019-06-07T05:39:43.260Z,100659.62
2019-06-07T05:42:08.259Z,100657.93
2019-06-07T05:44:36.371Z,100654.47
2019-06-07T05:47:02.908Z,100644.19
2019-06-07T05:49:29.231Z,100642.59
2019-06-07T05:51:55.471Z,100640.89
2019-06-07T05:54:21.679Z,100639.22
2019-06-07T05:56:48.998Z,100633.96
2019-06-07T05:59:15.495Z,100636.76
2019-06-07T06:01:48.021Z,100634.33
2019-06-07T06:04:09.877Z,100632.63
2019-06-07T06:06:36.407Z,100630.92
2019-06-07T06:10:10.748Z,100622.35
2019-06-07T06:12:40.831Z,100620.59
2019-06-07T06:15:06.307Z,100622.37
2019-06-07T06:17:32.394Z,100627.61
2019-06-07T06:19:58.768Z,100623.25
2019-06-07T06:22:24.911Z,100625.97
2019-06-07T06:25:29.703Z,100634.78
2019-06-07T06:28:02.582Z,100636.55
2019-06-07T06:29:50.420Z,100622.55
2019-06-07T06:32:41.073Z,100626.05
2019-06-07T06:34:47.090Z,100624.33
2019-06-07T06:37:11.960Z,100625.19
2019-06-07T06:39:39.466Z,100624.31
2019-06-07T06:42:05.630Z,100614.67
2019-06-07T06:44:31.713Z,100615.56
2019-06-07T06:46:58.652Z,100617.30
2019-06-07T06:49:24.808Z,100619.06
2019-06-07T06:51:53.630Z,100615.55
2019-06-07T06:54:39.486Z,100612.02
2019-06-07T06:56:47.600Z,100611.96
2019-06-07T06:59:38.047Z,100620.75
2019-06-07T07:01:45.140Z,100622.48
2019-06-07T07:04:13.586Z,100616.37
2019-06-07T07:06:41.497Z,100627.70
2019-06-07T07:09:08.354Z,100618.13
2019-06-07T07:11:52.241Z,100627.67
2019-06-07T07:14:03.382Z,100609.97
2019-06-07T07:16:29.484Z,100608.20
2019-06-07T07:18:55.551Z,100614.34
2019-06-07T07:21:21.632Z,100609.14
2019-06-07T07:24:15.153Z,100616.32
2019-06-07T07:26:15.767Z,100617.24
2019-06-07T07:28:43.074Z,100608.38
2019-06-07T07:31:09.966Z,100607.38
2019-06-07T07:36:22.684Z,100591.52
2019-06-07T07:38:32.398Z,100582.59
2019-06-07T07:41:14.677Z,100580.06
2019-06-07T07:43:26.567Z,100578.45
2019-06-07T07:45:59.242Z,100580.16
2019-06-07T07:48:20.878Z,100586.94
2019-06-07T07:50:49.893Z,100584.99
2019-06-07T07:53:15.208Z,100580.03
2019-06-07T07:55:41.337Z,100583.47
2019-06-07T07:58:07.528Z,100576.47
2019-06-07T08:00:52.234Z,100572.86
2019-06-07T08:03:04.486Z,100565.49
2019-06-07T08:05:42.475Z,100570.03
2019-06-07T08:08:01.586Z,100570.77
2019-06-07T08:10:27.217Z,100569.06
2019-06-07T08:13:16.282Z,100566.53
2019-06-07T08:15:21.607Z,100562.25
2019-06-07T08:17:50.748Z,100551.50
2019-06-07T08:20:16.283Z,100555.01
2019-06-07T08:22:42.601Z,100556.08
2019-06-07T08:25:09.440Z,100553.56
2019-06-07T08:27:35.737Z,100540.02
2019-06-07T08:30:35.446Z,100540.84
2019-06-07T08:32:35.830Z,100539.25
2019-06-07T08:35:06.956Z,100537.45
2019-06-07T08:38:14.048Z,100538.91
2019-06-07T08:40:06.225Z,100528.48
2019-06-07T08:42:37.540Z,100515.98
2019-06-07T08:45:03.646Z,100511.60
2019-06-07T08:47:28.663Z,100517.14
2019-06-07T08:49:59.303Z,100514.07
2019-06-07T08:52:22.862Z,100511.25
2019-06-07T08:54:49.059Z,100513.44
2019-06-07T08:57:21.397Z,100510.66
2019-06-07T08:59:44.209Z,100504.33
2019-06-07T09:02:23.215Z,100503.12
2019-06-07T09:04:38.501Z,100502.65
2019-06-07T09:07:18.435Z,100499.02
2019-06-07T09:09:32.826Z,100485.94
2019-06-07T09:12:03.233Z,100479.95
2019-06-07T09:14:27.116Z,100470.81
2019-06-07T09:16:58.792Z,100472.38
2019-06-07T09:19:21.338Z,100464.73
2019-06-07T09:21:47.457Z,100466.46
2019-06-07T09:24:13.540Z,100463.03
2019-06-07T09:26:39.818Z,100462.81
2019-06-07T09:29:09.469Z,100457.73
2019-06-07T09:31:51.889Z,100464.94
2019-06-07T09:34:06.628Z,100456.20
2019-06-07T09:36:30.333Z,100450.22
2019-06-07T09:38:58.834Z,100427.25
2019-06-07T09:41:46.177Z,100421.62
2019-06-07T09:44:04.740Z,100411.86
2019-06-07T09:46:20.735Z,100421.48
2019-06-07T09:49:10.743Z,100418.16
2019-06-07T09:51:19.839Z,100417.72
2019-06-07T09:53:43.116Z,100409.76
2019-06-07T09:56:12.043Z,100414.50
2019-06-07T09:58:54.210Z,100403.84
2019-06-07T10:01:12.222Z,100405.78
2019-06-07T10:03:33.404Z,100406.83
2019-06-07T10:06:00.413Z,100402.80
2019-06-07T10:09:42.405Z,100400.06
2019-06-07T10:10:55.663Z,100382.56
2019-06-07T10:13:21.869Z,100381.78
2019-06-07T10:15:47.958Z,100384.16
2019-06-07T10:18:14.153Z,100375.81
2019-06-07T10:20:40.366Z,100374.85
2019-06-07T10:23:07.980Z,100366.95
2019-06-07T10:25:34.751Z,100371.11
2019-06-07T10:28:01.949Z,100368.80
2019-06-07T10:30:28.048Z,100356.45
2019-06-07T10:32:54.440Z,100354.45
2019-06-07T10:35:20.639Z,100356.27
2019-06-07T10:37:47.850Z,100355.46
2019-06-07T10:40:14.661Z,100360.43
2019-06-07T10:42:40.749Z,100361.75
2019-06-07T10:45:08.287Z,100345.83
2019-06-07T10:47:35.745Z,100356.27
2019-06-07T10:50:03.792Z,100361.02
2019-06-07T10:52:31.177Z,100352.72
2019-06-07T10:54:57.575Z,100335.80
2019-06-07T10:57:23.657Z,100330.35
2019-06-07T10:59:49.851Z,100330.59
2019-06-07T11:02:16.592Z,100333.28
2019-06-07T11:04:42.794Z,100333.28
2019-06-07T11:07:10.113Z,100332.11
2019-06-07T11:09:36.507Z,100321.21
2019-06-07T11:12:04.237Z,100320.94
2019-06-07T11:14:30.719Z,100314.21
2019-06-07T11:16:57.060Z,100307.56
2019-06-07T11:19:23.160Z,100303.33
2019-06-07T11:21:49.620Z,100303.45
2019-06-07T11:24:18.713Z,100283.86
2019-06-07T11:26:44.287Z,100288.93
2019-06-07T11:29:11.044Z,100288.14
2019-06-07T11:31:38.655Z,100292.81
2019-06-07T11:34:06.262Z,100290.06
2019-06-07T11:36:32.601Z,100274.62
2019-06-07T11:38:58.803Z,100277.83
2019-06-07T11:41:25.002Z,100272.79
2019-06-07T11:43:51.215Z,100276.09
2019-06-07T11:46:17.398Z,100266.06
2019-06-07T11:48:43.585Z,100251.97
2019-06-07T11:51:10.802Z,100254.59
2019-06-07T11:53:37.130Z,100245.72
2019-06-07T11:56:03.419Z,100239.88
2019-06-07T11:58:29.633Z,100236.77
2019-06-07T12:00:56.062Z,100233.69
2019-06-07T12:03:22.258Z,100233.08
2019-06-07T12:05:48.359Z,100231.69
2019-06-07T12:08:14.451Z,100213.06
2019-06-07T12:10:42.748Z,100207.36
2019-06-07T12:13:10.364Z,100217.64
2019-06-07T12:15:36.582Z,100203.59
2019-06-07T12:18:02.841Z,100212.30
2019-06-07T12:20:29.073Z,100201.92
2019-06-07T12:22:55.285Z,100210.84
2019-06-07T12:25:25.000Z,100203.59
2019-06-07T12:27:49.505Z,100195.94
2019-06-07T12:30:23.495Z,100195.22
2019-06-07T12:32:44.320Z,100188.94
2019-06-07T12:35:11.496Z,100177.34
2019-06-07T12:37:44.599Z,100174.94
2019-06-07T12:40:07.113Z,100166.52
2019-06-07T12:42:33.328Z,100163.25
2019-06-07T12:44:59.429Z,100159.00
2019-06-07T12:47:25.609Z,100156.80
2019-06-07T12:49:51.708Z,100153.25
2019-06-07T12:52:20.059Z,100146.95
2019-06-07T12:54:46.127Z,100137.12
2019-06-07T12:57:13.700Z,100113.37
2019-06-07T12:59:40.292Z,100126.27
2019-06-07T13:02:06.696Z,100123.48
2019-06-07T13:04:33.018Z,100126.05
2019-06-07T13:06:59.314Z,100116.63
2019-06-07T13:09:25.508Z,100109.28
2019-06-07T13:11:51.706Z,100104.59
2019-06-07T13:14:18.048Z,100107.77
2019-06-07T13:16:44.261Z,100100.54
2019-06-07T13:19:10.406Z,100107.18
2019-06-07T13:21:36.632Z,100090.16
2019-06-07T13:24:03.055Z,100087.87
2019-06-07T13:26:29.126Z,100056.70
2019-06-07T13:28:55.240Z,100067.23
2019-06-07T13:31:23.451Z,100072.98
2019-06-07T13:33:49.781Z,100067.20
2019-06-07T13:36:16.090Z,100066.41
2019-06-07T13:38:42.227Z,100067.23
2019-06-07T13:41:08.541Z,100064.25
2019-06-07T13:43:35.772Z,100062.45
2019-06-07T13:46:03.064Z,100064.09
2019-06-07T13:48:29.138Z,100054.10
2019-06-07T13:50:55.378Z,100065.13
2019-06-07T13:53:22.721Z,100049.91
2019-06-07T13:55:49.052Z,100049.20
2019-06-07T13:58:15.256Z,100044.00
2019-06-07T14:00:42.541Z,100039.41
2019-06-07T14:03:08.950Z,100034.48
2019-06-07T14:05:35.152Z,100031.98
2019-06-07T14:08:01.333Z,100010.81
2019-06-07T14:10:27.631Z,100003.30
2019-06-07T14:12:53.889Z,99996.55
2019-06-07T14:15:20.578Z,99996.16
2019-06-07T14:17:47.035Z,100003.15
2019-06-07T14:20:13.620Z,100009.94
2019-06-07T14:22:39.999Z,100012.34
2019-06-07T14:25:08.339Z,100020.13
2019-06-07T14:27:34.557Z,100004.88
2019-06-07T14:30:00.646Z,100003.78
2019-06-07T14:32:26.870Z,99993.47
2019-06-07T14:34:52.963Z,100005.77
2019-06-07T14:37:19.032Z,100004.49
2019-06-07T14:39:46.315Z,99996.69
2019-06-07T14:42:12.444Z,100000.55
2019-06-07T14:44:38.644Z,99996.94
2019-06-07T14:47:04.835Z,99996.02
2019-06-07T14:49:32.528Z,99986.77
2019-06-07T14:51:58.853Z,99988.55
2019-06-07T14:54:25.060Z,99980.89
2019-06-07T14:56:51.274Z,99965.22
2019-06-07T14:59:17.584Z,99947.11
2019-06-07T15:01:43.693Z,99957.55
2019-06-07T15:04:09.941Z,99945.28
2019-06-07T15:06:36.160Z,99936.64
2019-06-07T15:09:05.377Z,99943.28
2019-06-07T15:11:33.035Z,99947.41
2019-06-07T15:13:59.258Z,99945.28
2019-06-07T15:16:25.475Z,99952.83
2019-06-07T15:18:51.792Z,99970.19
2019-06-07T15:21:17.998Z,99975.23
2019-06-07T15:23:44.512Z,99982.64
2019-06-07T15:26:10.799Z,99970.20
2019-06-07T15:28:38.481Z,99972.47
2019-06-07T15:31:04.810Z,99983.52
2019-06-07T15:33:31.829Z,99972.58
2019-06-07T15:35:58.015Z,99980.03
2019-06-07T15:38:24.108Z,99979.46
2019-06-07T15:40:50.204Z,99971.67
2019-06-07T15:43:16.331Z,99970.84
2019-06-07T15:45:43.248Z,99966.88
2019-06-07T15:48:09.358Z,99968.55
2019-06-07T15:50:36.148Z,99966.83
2019-06-07T15:53:02.526Z,99961.80
2019-06-07T15:55:28.592Z,99969.52
2019-06-07T15:57:54.925Z,99965.25
2019-06-07T16:00:21.329Z,99970.86
2019-06-07T16:02:47.389Z,99967.12
2019-06-07T16:05:14.480Z,99972.00
2019-06-07T16:07:40.765Z,99976.11
2019-06-07T16:10:07.739Z,99980.49
2019-06-07T16:12:34.577Z,99976.38
2019-06-07T16:15:00.749Z,99973.63
2019-06-07T16:17:27.082Z,99967.09
2019-06-07T16:19:53.415Z,99963.85
2019-06-07T16:22:19.576Z,99962.86
2019-06-07T16:24:45.805Z,99962.63
2019-06-07T16:27:12.126Z,99957.77
2019-06-07T16:29:38.592Z,99963.72
2019-06-07T16:32:04.814Z,99962.09
2019-06-07T16:34:31.186Z,99963.09
2019-06-07T16:36:57.263Z,99958.84
2019-06-07T16:39:23.603Z,99965.45
2019-06-07T16:41:49.802Z,99969.48
2019-06-07T16:44:15.914Z,99956.05
2019-06-07T16:46:42.915Z,99958.35
2019-06-07T16:49:09.153Z,99962.27
2019-06-07T16:51:35.368Z,99943.20
2019-06-07T16:54:01.791Z,99936.27
2019-06-07T16:56:28.297Z,99930.84
2019-06-07T16:58:54.645Z,99920.67
2019-06-07T17:01:20.845Z,99917.72
2019-06-07T17:03:47.615Z,99914.44
2019-06-07T17:06:13.983Z,99918.35
2019-06-07T17:08:40.283Z,99913.23
2019-06-07T17:11:06.589Z,99909.36
2019-06-07T17:13:33.953Z,99910.89
2019-06-07T17:16:00.456Z,99919.98
2019-06-07T17:18:26.661Z,99917.85
2019-06-07T17:20:52.784Z,99915.24
2019-06-07T17:23:18.870Z,99920.38
2019-06-07T17:25:45.438Z,99908.30
2019-06-07T17:28:12.376Z,99923.52
2019-06-07T17:30:39.780Z,99912.89
2019-06-07T17:33:06.328Z,99902.00
2019-06-07T17:35:32.548Z,99914.89
2019-06-07T17:37:58.873Z,99927.97
2019-06-07T17:40:25.079Z,99923.17
2019-06-07T17:42:51.333Z,99917.33
2019-06-07T17:45:19.737Z,99909.90
2019-06-07T17:47:46.071Z,99910.42
2019-06-07T17:50:14.411Z,99910.55
2019-06-07T17:52:41.786Z,99911.23
2019-06-07T17:55:09.928Z,99911.78
2019-06-07T17:57:36.319Z,99901.37
2019-06-07T18:00:27.726Z,99892.72
2019-06-07T18:02:35.613Z,99900.02
2019-06-07T18:05:02.408Z,99950.23
2019-06-07T18:07:29.829Z,100033.25
2019-06-07T18:09:56.526Z,100062.60
2019-06-07T18:12:22.826Z,100176.38
2019-06-07T18:14:49.994Z,100190.81
2019-06-07T18:17:16.307Z,100198.39
2019-06-07T18:19:43.319Z,100169.53
2019-06-07T18:22:10.796Z,100059.19
2019-06-07T18:24:37.024Z,100127.64
2019-06-07T18:27:06.867Z,100164.50
2019-06-07T18:29:31.544Z,100174.09
2019-06-07T18:32:00.204Z,100205.64
2019-06-07T18:34:25.761Z,100217.94
2019-06-07T18:36:53.123Z,100224.08
2019-06-07T18:39:19.289Z,100241.59
2019-06-07T18:41:45.505Z,100281.87
2019-06-07T18:44:21.237Z,100273.11
2019-06-07T18:46:40.029Z,100288.03
2019-06-07T18:49:06.265Z,100293.28
2019-06-07T18:51:32.495Z,100287.14
2019-06-07T18:53:58.659Z,100282.75
2019-06-07T18:56:25.725Z,100277.53
2019-06-07T18:58:53.079Z,100282.78
2019-06-07T19:01:19.584Z,100262.66
2019-06-07T19:03:47.144Z,100237.27
2019-06-07T19:06:14.114Z,100223.24
2019-06-07T19:08:40.377Z,100230.29
2019-06-07T19:11:07.672Z,100253.91
2019-06-07T19:13:33.871Z,100259.16
2019-06-07T19:16:00.071Z,100279.29
2019-06-07T19:18:26.316Z,100281.91
2019-06-07T19:20:54.191Z,100286.28
2019-06-07T19:23:20.588Z,100282.78
2019-06-07T19:25:46.910Z,100279.28
2019-06-07T19:28:13.018Z,100251.30
2019-06-07T19:30:39.319Z,100232.94
2019-06-07T19:33:05.488Z,100232.06
2019-06-07T19:35:31.757Z,100224.17
2019-06-07T19:37:58.034Z,100240.80
2019-06-07T19:40:24.251Z,100268.77
2019-06-07T19:42:52.070Z,100289.76
2019-06-07T19:45:34.235Z,100288.02
2019-06-07T19:47:47.867Z,100303.75
2019-06-07T19:50:14.394Z,100303.77
2019-06-07T19:52:40.595Z,100289.79
2019-06-07T19:55:09.955Z,100279.29
2019-06-07T19:57:36.802Z,100275.78
2019-06-07T20:00:13.594Z,100248.66
2019-06-07T20:02:34.758Z,100302.04
2019-06-07T20:05:04.736Z,100331.76
2019-06-07T20:07:30.276Z,100314.27
2019-06-07T20:09:56.586Z,100300.27
2019-06-07T20:12:23.034Z,100285.40
2019-06-07T20:14:49.168Z,100292.41
2019-06-07T20:17:15.289Z,100288.02
2019-06-07T20:19:41.539Z,100258.28
2019-06-07T20:22:07.718Z,100225.91
2019-06-07T20:24:33.979Z,100242.53
2019-06-07T20:27:02.331Z,100275.78
2019-06-07T20:29:30.183Z,100274.02
2019-06-07T20:31:56.566Z,100267.91
2019-06-07T20:34:22.787Z,100288.00
2019-06-07T20:36:48.918Z,100307.27
2019-06-07T20:39:15.148Z,100314.27
2019-06-07T20:41:41.606Z,100308.16
2019-06-07T20:44:08.147Z,100314.27
2019-06-07T20:46:34.402Z,100342.28
2019-06-07T20:49:02.221Z,100390.39
2019-06-07T20:51:28.453Z,100402.63
2019-06-07T20:53:54.655Z,100425.34
2019-06-07T20:56:24.387Z,100420.94
2019-06-07T20:58:49.309Z,100399.98
2019-06-07T21:01:15.649Z,100369.37
2019-06-07T21:03:41.954Z,100345.77
2019-06-07T21:06:08.032Z,100344.02
2019-06-07T21:08:34.203Z,100368.52
2019-06-07T21:11:01.624Z,100391.25
2019-06-07T21:13:28.862Z,100352.77
2019-06-07T21:15:55.087Z,100293.27
2019-06-07T21:18:21.420Z,100265.30
2019-06-07T21:20:47.624Z,100248.62
2019-06-07T21:23:13.798Z,100267.03
2019-06-07T21:25:39.914Z,100288.02
2019-06-07T21:28:07.246Z,100352.78
2019-06-07T21:30:33.435Z,100335.28
2019-06-07T21:32:59.657Z,100324.78
2019-06-07T21:35:25.984Z,100335.26
2019-06-07T21:37:52.148Z,100313.39
2019-06-07T21:40:18.440Z,100307.29
2019-06-07T21:42:44.617Z,100302.04
2019-06-07T21:45:11.887Z,100293.28
2019-06-07T21:47:38.283Z,100290.66
2019-06-07T21:50:06.638Z,100295.89
2019-06-07T21:52:32.862Z,100312.52
2019-06-07T21:54:58.950Z,100311.64
2019-06-07T21:57:25.055Z,100316.01
2019-06-07T21:59:51.270Z,100342.23
2019-06-07T22:02:17.706Z,100341.38
2019-06-07T22:04:43.930Z,100357.95
2019-06-07T22:07:11.480Z,100348.30
2019-06-07T22:09:37.715Z,100357.91
2019-06-07T22:12:04.535Z,100349.15
2019-06-07T22:14:31.070Z,100345.64
2019-06-07T22:16:57.251Z,100328.17
2019-06-07T22:19:23.371Z,100360.50
2019-06-07T22:22:02.211Z,100387.54
2019-06-07T22:24:17.555Z,100393.64
2019-06-07T22:26:43.738Z,100397.13
2019-06-07T22:29:10.347Z,100393.61
2019-06-07T22:31:36.682Z,100375.25
2019-06-07T22:34:03.427Z,100390.97
2019-06-07T22:36:29.859Z,100395.33
2019-06-07T22:38:55.935Z,100394.44
2019-06-07T22:41:23.244Z,100392.70
2019-06-07T22:43:49.329Z,100375.20
2019-06-07T22:46:15.519Z,100366.48
2019-06-07T22:48:41.791Z,100361.25
2019-06-07T22:51:11.333Z,100357.74
2019-06-07T22:53:38.969Z,100345.53
2019-06-07T22:56:07.746Z,100335.05
2019-06-07T22:58:34.000Z,100337.66
2019-06-07T23:01:00.110Z,100352.52
2019-06-07T23:03:26.220Z,100343.80
2019-06-07T23:05:52.388Z,100346.42
2019-06-07T23:08:19.095Z,100349.05
2019-06-07T23:10:45.372Z,100335.06
2019-06-07T23:13:11.568Z,100367.40
2019-06-07T23:15:37.650Z,100375.25
2019-06-07T23:18:03.880Z,100376.99
2019-06-07T23:20:31.458Z,100356.03
2019-06-07T23:22:57.555Z,100357.80
2019-06-07T23:25:24.709Z,100375.27
2019-06-07T23:27:51.027Z,100389.27
2019-06-07T23:30:21.445Z,100387.53
2019-06-07T23:32:47.490Z,100387.54
2019-06-07T23:35:14.813Z,100398.88
2019-06-07T23:37:41.276Z,100387.53
2019-06-07T23:40:07.854Z,100366.56
2019-06-07T23:42:33.972Z,100374.44
2019-06-07T23:45:00.035Z,100384.90
2019-06-07T23:47:26.126Z,100389.31
2019-06-07T23:49:52.197Z,100378.79
2019-06-07T23:52:18.350Z,100382.29
2019-06-07T23:54:44.444Z,100384.03
2019-06-07T23:57:12.025Z,100389.27
2019-06-07T23:59:38.387Z,100380.52
